sensor_id;sensor_type;location;lat;lon;timestamp;pressure;altitude;pressure_sealevel;temperature
8227;BMP180;4154;48.810;9.012;2023-12-04T00:01:19;97039.00;;;-3.80
8227;BMP180;4154;48.810;9.012;2023-12-04T00:03:45;97030.00;;;-3.80
8227;BMP180;4154;48.810;9.012;2023-12-04T00:06:11;97023.00;;;-3.90
8227;BMP180;4154;48.810;9.012;2023-12-04T00:08:38;97027.00;;;-3.90
8227;BMP180;4154;48.810;9.012;2023-12-04T00:11:05;97020.00;;;-3.80
8227;BMP180;4154;48.810;9.012;2023-12-04T00:13:31;97011.00;;;-3.90
8227;BMP180;4154;48.810;9.012;2023-12-04T00:15:57;97005.00;;;-3.90
8227;BMP180;4154;48.810;9.012;2023-12-04T00:18:23;96998.00;;;-3.90
8227;BMP180;4154;48.810;9.012;2023-12-04T00:20:49;97002.00;;;-3.90
8227;BMP180;4154;48.810;9.012;2023-12-04T00:23:14;96997.00;;;-3.90
8227;BMP180;4154;48.810;9.012;2023-12-04T00:25:40;97000.00;;;-4.00
8227;BMP180;4154;48.810;9.012;2023-12-04T00:28:05;96996.00;;;-4.00
8227;BMP180;4154;48.810;9.012;2023-12-04T00:30:31;96991.00;;;-4.00
8227;BMP180;4154;48.810;9.012;2023-12-04T00:32:57;96987.00;;;-4.00
8227;BMP180;4154;48.810;9.012;2023-12-04T00:35:23;96982.00;;;-4.00
8227;BMP180;4154;48.810;9.012;2023-12-04T00:37:49;96975.00;;;-4.10
8227;BMP180;4154;48.810;9.012;2023-12-04T00:40:14;96978.00;;;-4.10
8227;BMP180;4154;48.810;9.012;2023-12-04T00:42:40;96983.00;;;-4.00
8227;BMP180;4154;48.810;9.012;2023-12-04T00:45:07;96987.00;;;-4.00
8227;BMP180;4154;48.810;9.012;2023-12-04T00:47:32;96970.00;;;-4.10
8227;BMP180;4154;48.810;9.012;2023-12-04T00:49:58;96972.00;;;-4.00
8227;BMP180;4154;48.810;9.012;2023-12-04T00:52:23;96973.00;;;-4.00
8227;BMP180;4154;48.810;9.012;2023-12-04T00:54:49;96963.00;;;-4.10
8227;BMP180;4154;48.810;9.012;2023-12-04T00:57:15;96962.00;;;-4.10
8227;BMP180;4154;48.810;9.012;2023-12-04T00:59:41;96956.00;;;-4.10
8227;BMP180;4154;48.810;9.012;2023-12-04T01:02:07;96969.00;;;-4.10
8227;BMP180;4154;48.810;9.012;2023-12-04T01:04:33;96962.00;;;-4.10
8227;BMP180;4154;48.810;9.012;2023-12-04T01:06:59;96972.00;;;-4.20
8227;BMP180;4154;48.810;9.012;2023-12-04T01:09:24;96963.00;;;-4.10
8227;BMP180;4154;48.810;9.012;2023-12-04T01:11:54;96962.00;;;-4.20
8227;BMP180;4154;48.810;9.012;2023-12-04T01:14:21;96975.00;;;-4.20
8227;BMP180;4154;48.810;9.012;2023-12-04T01:16:47;96967.00;;;-4.20
8227;BMP180;4154;48.810;9.012;2023-12-04T01:19:13;96956.00;;;-4.20
8227;BMP180;4154;48.810;9.012;2023-12-04T01:21:38;96948.00;;;-4.20
8227;BMP180;4154;48.810;9.012;2023-12-04T01:24:04;96943.00;;;-4.20
8227;BMP180;4154;48.810;9.012;2023-12-04T01:26:30;96944.00;;;-4.30
8227;BMP180;4154;48.810;9.012;2023-12-04T01:28:56;96947.00;;;-4.20
8227;BMP180;4154;48.810;9.012;2023-12-04T01:31:21;96929.00;;;-4.30
8227;BMP180;4154;48.810;9.012;2023-12-04T01:33:47;96928.00;;;-4.30
8227;BMP180;4154;48.810;9.012;2023-12-04T01:36:13;96932.00;;;-4.30
8227;BMP180;4154;48.810;9.012;2023-12-04T01:38:38;96920.00;;;-4.30
8227;BMP180;4154;48.810;9.012;2023-12-04T01:41:05;96928.00;;;-4.40
8227;BMP180;4154;48.810;9.012;2023-12-04T01:43:31;96931.00;;;-4.40
8227;BMP180;4154;48.810;9.012;2023-12-04T01:45:57;96920.00;;;-4.40
8227;BMP180;4154;48.810;9.012;2023-12-04T01:48:25;96925.00;;;-4.50
8227;BMP180;4154;48.810;9.012;2023-12-04T01:50:52;96917.00;;;-4.50
8227;BMP180;4154;48.810;9.012;2023-12-04T01:53:19;96912.00;;;-4.40
8227;BMP180;4154;48.810;9.012;2023-12-04T01:55:46;96912.00;;;-4.40
8227;BMP180;4154;48.810;9.012;2023-12-04T01:58:13;96912.00;;;-4.40
8227;BMP180;4154;48.810;9.012;2023-12-04T02:00:38;96909.00;;;-4.40
8227;BMP180;4154;48.810;9.012;2023-12-04T02:03:04;96921.00;;;-4.30
8227;BMP180;4154;48.810;9.012;2023-12-04T02:05:31;96921.00;;;-4.40
8227;BMP180;4154;48.810;9.012;2023-12-04T02:07:57;96919.00;;;-4.40
8227;BMP180;4154;48.810;9.012;2023-12-04T02:10:23;96918.00;;;-4.40
8227;BMP180;4154;48.810;9.012;2023-12-04T02:12:50;96922.00;;;-4.30
8227;BMP180;4154;48.810;9.012;2023-12-04T02:15:16;96911.00;;;-4.30
8227;BMP180;4154;48.810;9.012;2023-12-04T02:17:43;96902.00;;;-4.30
8227;BMP180;4154;48.810;9.012;2023-12-04T02:20:14;96903.00;;;-4.40
8227;BMP180;4154;48.810;9.012;2023-12-04T02:22:40;96905.00;;;-4.40
8227;BMP180;4154;48.810;9.012;2023-12-04T02:25:07;96905.00;;;-4.40
8227;BMP180;4154;48.810;9.012;2023-12-04T02:27:56;96898.00;;;-4.40
8227;BMP180;4154;48.810;9.012;2023-12-04T02:30:24;96897.00;;;-4.30
8227;BMP180;4154;48.810;9.012;2023-12-04T02:32:51;96912.00;;;-4.30
8227;BMP180;4154;48.810;9.012;2023-12-04T02:35:24;96896.00;;;-4.30
8227;BMP180;4154;48.810;9.012;2023-12-04T02:37:52;96888.00;;;-4.20
8227;BMP180;4154;48.810;9.012;2023-12-04T02:40:19;96892.00;;;-4.40
8227;BMP180;4154;48.810;9.012;2023-12-04T02:42:44;96886.00;;;-4.40
8227;BMP180;4154;48.810;9.012;2023-12-04T02:45:10;96885.00;;;-4.30
8227;BMP180;4154;48.810;9.012;2023-12-04T02:47:36;96889.00;;;-4.40
8227;BMP180;4154;48.810;9.012;2023-12-04T02:50:02;96884.00;;;-4.40
8227;BMP180;4154;48.810;9.012;2023-12-04T02:52:28;96870.00;;;-4.40
8227;BMP180;4154;48.810;9.012;2023-12-04T02:54:53;96856.00;;;-4.40
8227;BMP180;4154;48.810;9.012;2023-12-04T02:57:19;96869.00;;;-4.50
8227;BMP180;4154;48.810;9.012;2023-12-04T02:59:45;96865.00;;;-4.50
8227;BMP180;4154;48.810;9.012;2023-12-04T03:02:11;96848.00;;;-4.50
8227;BMP180;4154;48.810;9.012;2023-12-04T03:04:37;96849.00;;;-4.40
8227;BMP180;4154;48.810;9.012;2023-12-04T03:07:03;96833.00;;;-4.40
8227;BMP180;4154;48.810;9.012;2023-12-04T03:09:28;96834.00;;;-4.40
8227;BMP180;4154;48.810;9.012;2023-12-04T03:11:54;96840.00;;;-4.40
8227;BMP180;4154;48.810;9.012;2023-12-04T03:14:19;96831.00;;;-4.40
8227;BMP180;4154;48.810;9.012;2023-12-04T03:16:45;96831.00;;;-4.40
8227;BMP180;4154;48.810;9.012;2023-12-04T03:19:11;96826.00;;;-4.50
8227;BMP180;4154;48.810;9.012;2023-12-04T03:21:36;96821.00;;;-4.40
8227;BMP180;4154;48.810;9.012;2023-12-04T03:24:02;96821.00;;;-4.40
8227;BMP180;4154;48.810;9.012;2023-12-04T03:26:28;96815.00;;;-4.50
8227;BMP180;4154;48.810;9.012;2023-12-04T03:28:54;96813.00;;;-4.50
8227;BMP180;4154;48.810;9.012;2023-12-04T03:31:21;96805.00;;;-4.50
8227;BMP180;4154;48.810;9.012;2023-12-04T03:33:47;96794.00;;;-4.40
8227;BMP180;4154;48.810;9.012;2023-12-04T03:36:13;96787.00;;;-4.30
8227;BMP180;4154;48.810;9.012;2023-12-04T03:38:38;96775.00;;;-4.40
8227;BMP180;4154;48.810;9.012;2023-12-04T03:41:04;96786.00;;;-4.30
8227;BMP180;4154;48.810;9.012;2023-12-04T03:43:30;96770.00;;;-4.30
8227;BMP180;4154;48.810;9.012;2023-12-04T03:45:55;96785.00;;;-4.30
8227;BMP180;4154;48.810;9.012;2023-12-04T03:48:21;96785.00;;;-4.20
8227;BMP180;4154;48.810;9.012;2023-12-04T03:50:46;96785.00;;;-4.20
8227;BMP180;4154;48.810;9.012;2023-12-04T03:53:12;96778.00;;;-4.10
8227;BMP180;4154;48.810;9.012;2023-12-04T03:55:38;96792.00;;;-4.10
8227;BMP180;4154;48.810;9.012;2023-12-04T03:58:03;96778.00;;;-4.10
8227;BMP180;4154;48.810;9.012;2023-12-04T04:00:29;96769.00;;;-4.10
8227;BMP180;4154;48.810;9.012;2023-12-04T04:02:54;96778.00;;;-4.10
8227;BMP180;4154;48.810;9.012;2023-12-04T04:05:20;96774.00;;;-4.10
8227;BMP180;4154;48.810;9.012;2023-12-04T04:07:46;96770.00;;;-4.20
8227;BMP180;4154;48.810;9.012;2023-12-04T04:10:12;96773.00;;;-4.10
8227;BMP180;4154;48.810;9.012;2023-12-04T04:12:37;96779.00;;;-4.10
8227;BMP180;4154;48.810;9.012;2023-12-04T04:15:04;96777.00;;;-4.10
8227;BMP180;4154;48.810;9.012;2023-12-04T04:17:29;96776.00;;;-4.10
8227;BMP180;4154;48.810;9.012;2023-12-04T04:19:55;96769.00;;;-4.10
8227;BMP180;4154;48.810;9.012;2023-12-04T04:22:22;96774.00;;;-4.10
8227;BMP180;4154;48.810;9.012;2023-12-04T04:24:48;96769.00;;;-4.20
8227;BMP180;4154;48.810;9.012;2023-12-04T04:27:14;96778.00;;;-4.20
8227;BMP180;4154;48.810;9.012;2023-12-04T04:29:40;96768.00;;;-4.10
8227;BMP180;4154;48.810;9.012;2023-12-04T04:32:06;96768.00;;;-4.20
8227;BMP180;4154;48.810;9.012;2023-12-04T04:34:32;96762.00;;;-4.10
8227;BMP180;4154;48.810;9.012;2023-12-04T04:36:58;96758.00;;;-4.10
8227;BMP180;4154;48.810;9.012;2023-12-04T04:39:23;96766.00;;;-4.10
8227;BMP180;4154;48.810;9.012;2023-12-04T04:41:49;96759.00;;;-4.10
8227;BMP180;4154;48.810;9.012;2023-12-04T04:44:15;96767.00;;;-4.20
8227;BMP180;4154;48.810;9.012;2023-12-04T04:46:40;96767.00;;;-4.20
8227;BMP180;4154;48.810;9.012;2023-12-04T04:49:06;96747.00;;;-4.30
8227;BMP180;4154;48.810;9.012;2023-12-04T04:51:33;96748.00;;;-4.30
8227;BMP180;4154;48.810;9.012;2023-12-04T04:54:03;96735.00;;;-4.20
8227;BMP180;4154;48.810;9.012;2023-12-04T04:56:29;96741.00;;;-4.20
8227;BMP180;4154;48.810;9.012;2023-12-04T04:58:55;96740.00;;;-4.20
8227;BMP180;4154;48.810;9.012;2023-12-04T05:01:21;96721.00;;;-4.10
8227;BMP180;4154;48.810;9.012;2023-12-04T05:03:47;96728.00;;;-4.10
8227;BMP180;4154;48.810;9.012;2023-12-04T05:06:13;96722.00;;;-4.00
8227;BMP180;4154;48.810;9.012;2023-12-04T05:08:39;96723.00;;;-3.90
8227;BMP180;4154;48.810;9.012;2023-12-04T05:11:05;96713.00;;;-3.80
8227;BMP180;4154;48.810;9.012;2023-12-04T05:13:30;96707.00;;;-3.80
8227;BMP180;4154;48.810;9.012;2023-12-04T05:15:56;96710.00;;;-3.80
8227;BMP180;4154;48.810;9.012;2023-12-04T05:18:22;96695.00;;;-3.70
8227;BMP180;4154;48.810;9.012;2023-12-04T05:20:47;96700.00;;;-3.70
8227;BMP180;4154;48.810;9.012;2023-12-04T05:23:13;96692.00;;;-3.60
8227;BMP180;4154;48.810;9.012;2023-12-04T05:25:38;96683.00;;;-3.60
8227;BMP180;4154;48.810;9.012;2023-12-04T05:28:04;96692.00;;;-3.60
8227;BMP180;4154;48.810;9.012;2023-12-04T05:30:30;96684.00;;;-3.60
8227;BMP180;4154;48.810;9.012;2023-12-04T05:32:56;96699.00;;;-3.60
8227;BMP180;4154;48.810;9.012;2023-12-04T05:35:22;96695.00;;;-3.60
8227;BMP180;4154;48.810;9.012;2023-12-04T05:37:48;96701.00;;;-3.50
8227;BMP180;4154;48.810;9.012;2023-12-04T05:40:14;96701.00;;;-3.50
8227;BMP180;4154;48.810;9.012;2023-12-04T05:42:40;96687.00;;;-3.50
8227;BMP180;4154;48.810;9.012;2023-12-04T05:45:06;96696.00;;;-3.50
8227;BMP180;4154;48.810;9.012;2023-12-04T05:47:33;96695.00;;;-3.50
8227;BMP180;4154;48.810;9.012;2023-12-04T05:50:00;96693.00;;;-3.50
8227;BMP180;4154;48.810;9.012;2023-12-04T05:52:26;96692.00;;;-3.50
8227;BMP180;4154;48.810;9.012;2023-12-04T05:54:52;96686.00;;;-3.50
8227;BMP180;4154;48.810;9.012;2023-12-04T05:57:17;96686.00;;;-3.50
8227;BMP180;4154;48.810;9.012;2023-12-04T05:59:43;96684.00;;;-3.50
8227;BMP180;4154;48.810;9.012;2023-12-04T06:02:09;96684.00;;;-3.50
8227;BMP180;4154;48.810;9.012;2023-12-04T06:04:35;96676.00;;;-3.50
8227;BMP180;4154;48.810;9.012;2023-12-04T06:07:00;96689.00;;;-3.50
8227;BMP180;4154;48.810;9.012;2023-12-04T06:09:26;96696.00;;;-3.50
8227;BMP180;4154;48.810;9.012;2023-12-04T06:11:51;96697.00;;;-3.50
8227;BMP180;4154;48.810;9.012;2023-12-04T06:14:17;96678.00;;;-3.50
8227;BMP180;4154;48.810;9.012;2023-12-04T06:16:43;96689.00;;;-3.50
8227;BMP180;4154;48.810;9.012;2023-12-04T06:19:08;96679.00;;;-3.40
8227;BMP180;4154;48.810;9.012;2023-12-04T06:21:34;96677.00;;;-3.40
8227;BMP180;4154;48.810;9.012;2023-12-04T06:24:00;96676.00;;;-3.40
8227;BMP180;4154;48.810;9.012;2023-12-04T06:26:26;96682.00;;;-3.40
8227;BMP180;4154;48.810;9.012;2023-12-04T06:28:52;96690.00;;;-3.30
8227;BMP180;4154;48.810;9.012;2023-12-04T06:31:18;96687.00;;;-3.30
8227;BMP180;4154;48.810;9.012;2023-12-04T06:33:44;96677.00;;;-3.30
8227;BMP180;4154;48.810;9.012;2023-12-04T06:36:13;96671.00;;;-3.20
8227;BMP180;4154;48.810;9.012;2023-12-04T06:38:40;96671.00;;;-3.10
8227;BMP180;4154;48.810;9.012;2023-12-04T06:41:07;96677.00;;;-3.10
8227;BMP180;4154;48.810;9.012;2023-12-04T06:43:34;96674.00;;;-3.10
8227;BMP180;4154;48.810;9.012;2023-12-04T06:46:00;96681.00;;;-3.10
8227;BMP180;4154;48.810;9.012;2023-12-04T06:48:26;96672.00;;;-3.20
8227;BMP180;4154;48.810;9.012;2023-12-04T06:50:52;96672.00;;;-3.20
8227;BMP180;4154;48.810;9.012;2023-12-04T06:53:18;96664.00;;;-3.20
8227;BMP180;4154;48.810;9.012;2023-12-04T06:55:43;96662.00;;;-3.20
8227;BMP180;4154;48.810;9.012;2023-12-04T06:58:10;96644.00;;;-3.20
8227;BMP180;4154;48.810;9.012;2023-12-04T07:00:35;96645.00;;;-3.30
8227;BMP180;4154;48.810;9.012;2023-12-04T07:03:01;96660.00;;;-3.30
8227;BMP180;4154;48.810;9.012;2023-12-04T07:05:26;96640.00;;;-3.30
8227;BMP180;4154;48.810;9.012;2023-12-04T07:07:53;96647.00;;;-3.30
8227;BMP180;4154;48.810;9.012;2023-12-04T07:10:18;96633.00;;;-3.30
8227;BMP180;4154;48.810;9.012;2023-12-04T07:12:45;96646.00;;;-3.30
8227;BMP180;4154;48.810;9.012;2023-12-04T07:15:11;96642.00;;;-3.30
8227;BMP180;4154;48.810;9.012;2023-12-04T07:17:38;96633.00;;;-3.40
8227;BMP180;4154;48.810;9.012;2023-12-04T07:20:05;96633.00;;;-3.40
8227;BMP180;4154;48.810;9.012;2023-12-04T07:22:34;96637.00;;;-3.30
8227;BMP180;4154;48.810;9.012;2023-12-04T07:25:00;96622.00;;;-3.40
8227;BMP180;4154;48.810;9.012;2023-12-04T07:27:25;96639.00;;;-3.30
8227;BMP180;4154;48.810;9.012;2023-12-04T07:29:52;96631.00;;;-3.40
8227;BMP180;4154;48.810;9.012;2023-12-04T07:32:17;96621.00;;;-3.40
8227;BMP180;4154;48.810;9.012;2023-12-04T07:34:44;96621.00;;;-3.30
8227;BMP180;4154;48.810;9.012;2023-12-04T07:37:09;96615.00;;;-3.30
8227;BMP180;4154;48.810;9.012;2023-12-04T07:39:35;96621.00;;;-3.40
8227;BMP180;4154;48.810;9.012;2023-12-04T07:42:01;96624.00;;;-3.30
8227;BMP180;4154;48.810;9.012;2023-12-04T07:44:27;96616.00;;;-3.20
8227;BMP180;4154;48.810;9.012;2023-12-04T07:46:53;96621.00;;;-3.40
8227;BMP180;4154;48.810;9.012;2023-12-04T07:49:18;96625.00;;;-3.30
8227;BMP180;4154;48.810;9.012;2023-12-04T07:51:44;96614.00;;;-3.20
8227;BMP180;4154;48.810;9.012;2023-12-04T07:54:10;96623.00;;;-3.20
8227;BMP180;4154;48.810;9.012;2023-12-04T07:56:35;96609.00;;;-3.00
8227;BMP180;4154;48.810;9.012;2023-12-04T07:59:01;96616.00;;;-3.00
8227;BMP180;4154;48.810;9.012;2023-12-04T08:01:26;96618.00;;;-2.90
8227;BMP180;4154;48.810;9.012;2023-12-04T08:03:52;96615.00;;;-2.80
8227;BMP180;4154;48.810;9.012;2023-12-04T08:06:18;96611.00;;;-2.80
8227;BMP180;4154;48.810;9.012;2023-12-04T08:08:44;96609.00;;;-2.70
8227;BMP180;4154;48.810;9.012;2023-12-04T08:11:11;96615.00;;;-2.60
8227;BMP180;4154;48.810;9.012;2023-12-04T08:13:39;96601.00;;;-2.50
8227;BMP180;4154;48.810;9.012;2023-12-04T08:16:12;96611.00;;;-2.50
8227;BMP180;4154;48.810;9.012;2023-12-04T08:18:38;96616.00;;;-2.40
8227;BMP180;4154;48.810;9.012;2023-12-04T08:21:04;96616.00;;;-2.50
8227;BMP180;4154;48.810;9.012;2023-12-04T08:23:29;96610.00;;;-2.50
8227;BMP180;4154;48.810;9.012;2023-12-04T08:25:55;96594.00;;;-2.40
8227;BMP180;4154;48.810;9.012;2023-12-04T08:28:20;96592.00;;;-2.40
8227;BMP180;4154;48.810;9.012;2023-12-04T08:30:46;96589.00;;;-2.20
8227;BMP180;4154;48.810;9.012;2023-12-04T08:33:12;96593.00;;;-2.20
8227;BMP180;4154;48.810;9.012;2023-12-04T08:35:38;96590.00;;;-2.20
8227;BMP180;4154;48.810;9.012;2023-12-04T08:38:04;96593.00;;;-2.10
8227;BMP180;4154;48.810;9.012;2023-12-04T08:40:30;96578.00;;;-2.00
8227;BMP180;4154;48.810;9.012;2023-12-04T08:42:56;96575.00;;;-2.00
8227;BMP180;4154;48.810;9.012;2023-12-04T08:45:21;96575.00;;;-1.90
8227;BMP180;4154;48.810;9.012;2023-12-04T08:47:47;96570.00;;;-1.90
8227;BMP180;4154;48.810;9.012;2023-12-04T08:50:12;96571.00;;;-1.80
8227;BMP180;4154;48.810;9.012;2023-12-04T08:52:38;96579.00;;;-1.70
8227;BMP180;4154;48.810;9.012;2023-12-04T08:55:07;96589.00;;;-1.70
8227;BMP180;4154;48.810;9.012;2023-12-04T08:57:33;96579.00;;;-1.60
8227;BMP180;4154;48.810;9.012;2023-12-04T08:59:59;96599.00;;;-1.50
8227;BMP180;4154;48.810;9.012;2023-12-04T09:02:25;96588.00;;;-1.40
8227;BMP180;4154;48.810;9.012;2023-12-04T09:04:50;96580.00;;;-1.40
8227;BMP180;4154;48.810;9.012;2023-12-04T09:07:16;96579.00;;;-1.30
8227;BMP180;4154;48.810;9.012;2023-12-04T09:09:42;96580.00;;;-1.20
8227;BMP180;4154;48.810;9.012;2023-12-04T09:12:10;96584.00;;;-1.10
8227;BMP180;4154;48.810;9.012;2023-12-04T09:14:35;96590.00;;;-1.20
8227;BMP180;4154;48.810;9.012;2023-12-04T09:17:02;96587.00;;;-1.10
8227;BMP180;4154;48.810;9.012;2023-12-04T09:19:29;96585.00;;;-1.10
8227;BMP180;4154;48.810;9.012;2023-12-04T09:21:55;96586.00;;;-1.10
8227;BMP180;4154;48.810;9.012;2023-12-04T09:24:20;96579.00;;;-1.10
8227;BMP180;4154;48.810;9.012;2023-12-04T09:26:46;96586.00;;;-1.00
8227;BMP180;4154;48.810;9.012;2023-12-04T09:29:12;96585.00;;;-1.00
8227;BMP180;4154;48.810;9.012;2023-12-04T09:31:38;96587.00;;;-0.90
8227;BMP180;4154;48.810;9.012;2023-12-04T09:34:04;96585.00;;;-1.00
8227;BMP180;4154;48.810;9.012;2023-12-04T09:36:30;96588.00;;;-1.00
8227;BMP180;4154;48.810;9.012;2023-12-04T09:38:55;96578.00;;;-1.00
8227;BMP180;4154;48.810;9.012;2023-12-04T09:41:21;96600.00;;;-0.90
8227;BMP180;4154;48.810;9.012;2023-12-04T09:43:47;96595.00;;;-0.90
8227;BMP180;4154;48.810;9.012;2023-12-04T09:46:14;96589.00;;;-0.90
8227;BMP180;4154;48.810;9.012;2023-12-04T09:48:43;96569.00;;;-0.90
8227;BMP180;4154;48.810;9.012;2023-12-04T09:51:10;96564.00;;;-0.90
8227;BMP180;4154;48.810;9.012;2023-12-04T09:53:36;96583.00;;;-0.80
8227;BMP180;4154;48.810;9.012;2023-12-04T09:56:07;96583.00;;;-0.80
8227;BMP180;4154;48.810;9.012;2023-12-04T09:58:36;96572.00;;;-0.90
8227;BMP180;4154;48.810;9.012;2023-12-04T10:01:06;96556.00;;;-0.80
8227;BMP180;4154;48.810;9.012;2023-12-04T10:03:33;96549.00;;;-0.80
8227;BMP180;4154;48.810;9.012;2023-12-04T10:06:00;96574.00;;;-0.80
8227;BMP180;4154;48.810;9.012;2023-12-04T10:08:25;96575.00;;;-0.70
8227;BMP180;4154;48.810;9.012;2023-12-04T10:10:51;96574.00;;;-0.60
8227;BMP180;4154;48.810;9.012;2023-12-04T10:13:17;96555.00;;;-0.60
8227;BMP180;4154;48.810;9.012;2023-12-04T10:15:50;96554.00;;;-0.60
8227;BMP180;4154;48.810;9.012;2023-12-04T10:18:31;96565.00;;;-0.60
8227;BMP180;4154;48.810;9.012;2023-12-04T10:20:58;96560.00;;;-0.50
8227;BMP180;4154;48.810;9.012;2023-12-04T10:23:42;96557.00;;;-0.30
8227;BMP180;4154;48.810;9.012;2023-12-04T10:26:08;96558.00;;;-0.40
8227;BMP180;4154;48.810;9.012;2023-12-04T10:28:35;96553.00;;;-0.30
8227;BMP180;4154;48.810;9.012;2023-12-04T10:31:02;96546.00;;;-0.30
8227;BMP180;4154;48.810;9.012;2023-12-04T10:33:29;96546.00;;;-0.20
8227;BMP180;4154;48.810;9.012;2023-12-04T10:35:56;96538.00;;;-0.20
8227;BMP180;4154;48.810;9.012;2023-12-04T10:38:22;96542.00;;;-0.20
8227;BMP180;4154;48.810;9.012;2023-12-04T10:40:48;96548.00;;;-0.30
8227;BMP180;4154;48.810;9.012;2023-12-04T10:43:23;96526.00;;;-0.20
8227;BMP180;4154;48.810;9.012;2023-12-04T10:45:52;96514.00;;;-0.10
8227;BMP180;4154;48.810;9.012;2023-12-04T10:48:20;96509.00;;;-0.10
8227;BMP180;4154;48.810;9.012;2023-12-04T10:50:48;96511.00;;;-0.10
8227;BMP180;4154;48.810;9.012;2023-12-04T10:53:16;96507.00;;;0.00
8227;BMP180;4154;48.810;9.012;2023-12-04T10:55:43;96493.00;;;0.00
8227;BMP180;4154;48.810;9.012;2023-12-04T10:58:14;96487.00;;;0.10
8227;BMP180;4154;48.810;9.012;2023-12-04T11:00:48;96465.00;;;0.20
8227;BMP180;4154;48.810;9.012;2023-12-04T11:03:31;96472.00;;;0.20
8227;BMP180;4154;48.810;9.012;2023-12-04T11:06:01;96469.00;;;0.20
8227;BMP180;4154;48.810;9.012;2023-12-04T11:08:29;96466.00;;;0.30
8227;BMP180;4154;48.810;9.012;2023-12-04T11:11:09;96471.00;;;0.30
8227;BMP180;4154;48.810;9.012;2023-12-04T11:13:40;96468.00;;;0.40
8227;BMP180;4154;48.810;9.012;2023-12-04T11:16:33;96478.00;;;0.50
8227;BMP180;4154;48.810;9.012;2023-12-04T11:22:07;96467.00;;;0.50
8227;BMP180;4154;48.810;9.012;2023-12-04T11:24:36;96461.00;;;0.50
8227;BMP180;4154;48.810;9.012;2023-12-04T11:27:02;96461.00;;;0.50
8227;BMP180;4154;48.810;9.012;2023-12-04T11:29:29;96452.00;;;0.50
8227;BMP180;4154;48.810;9.012;2023-12-04T11:31:55;96455.00;;;0.60
8227;BMP180;4154;48.810;9.012;2023-12-04T11:34:21;96459.00;;;0.50
8227;BMP180;4154;48.810;9.012;2023-12-04T11:36:47;96445.00;;;0.50
8227;BMP180;4154;48.810;9.012;2023-12-04T11:39:12;96448.00;;;0.50
8227;BMP180;4154;48.810;9.012;2023-12-04T11:41:40;96432.00;;;0.50
8227;BMP180;4154;48.810;9.012;2023-12-04T11:44:12;96420.00;;;0.60
8227;BMP180;4154;48.810;9.012;2023-12-04T11:47:03;96420.00;;;0.60
8227;BMP180;4154;48.810;9.012;2023-12-04T11:49:31;96413.00;;;0.60
8227;BMP180;4154;48.810;9.012;2023-12-04T11:52:02;96399.00;;;0.60
8227;BMP180;4154;48.810;9.012;2023-12-04T11:55:00;96381.00;;;0.70
8227;BMP180;4154;48.810;9.012;2023-12-04T11:57:37;96392.00;;;0.80
8227;BMP180;4154;48.810;9.012;2023-12-04T12:05:17;96387.00;;;1.10
8227;BMP180;4154;48.810;9.012;2023-12-04T12:07:43;96378.00;;;1.10
8227;BMP180;4154;48.810;9.012;2023-12-04T12:10:10;96368.00;;;1.20
8227;BMP180;4154;48.810;9.012;2023-12-04T12:12:37;96376.00;;;1.30
8227;BMP180;4154;48.810;9.012;2023-12-04T12:15:03;96371.00;;;1.30
8227;BMP180;4154;48.810;9.012;2023-12-04T12:17:30;96372.00;;;1.30
8227;BMP180;4154;48.810;9.012;2023-12-04T12:19:56;96370.00;;;1.30
8227;BMP180;4154;48.810;9.012;2023-12-04T12:22:25;96352.00;;;1.30
8227;BMP180;4154;48.810;9.012;2023-12-04T12:24:51;96358.00;;;1.40
8227;BMP180;4154;48.810;9.012;2023-12-04T12:27:17;96346.00;;;1.30
8227;BMP180;4154;48.810;9.012;2023-12-04T12:29:43;96333.00;;;1.20
8227;BMP180;4154;48.810;9.012;2023-12-04T12:32:09;96336.00;;;1.20
8227;BMP180;4154;48.810;9.012;2023-12-04T12:34:35;96336.00;;;1.10
8227;BMP180;4154;48.810;9.012;2023-12-04T12:37:03;96328.00;;;1.10
8227;BMP180;4154;48.810;9.012;2023-12-04T12:39:32;96326.00;;;1.10
8227;BMP180;4154;48.810;9.012;2023-12-04T12:41:58;96326.00;;;1.10
8227;BMP180;4154;48.810;9.012;2023-12-04T12:44:24;96318.00;;;1.00
8227;BMP180;4154;48.810;9.012;2023-12-04T12:46:51;96319.00;;;1.00
8227;BMP180;4154;48.810;9.012;2023-12-04T12:49:18;96320.00;;;0.90
8227;BMP180;4154;48.810;9.012;2023-12-04T12:51:45;96317.00;;;1.00
8227;BMP180;4154;48.810;9.012;2023-12-04T12:54:11;96320.00;;;1.00
8227;BMP180;4154;48.810;9.012;2023-12-04T12:56:37;96322.00;;;1.00
8227;BMP180;4154;48.810;9.012;2023-12-04T12:59:02;96318.00;;;1.00
8227;BMP180;4154;48.810;9.012;2023-12-04T13:01:32;96313.00;;;1.10
8227;BMP180;4154;48.810;9.012;2023-12-04T13:04:00;96302.00;;;1.10
8227;BMP180;4154;48.810;9.012;2023-12-04T13:06:26;96293.00;;;1.10
8227;BMP180;4154;48.810;9.012;2023-12-04T13:08:52;96292.00;;;1.10
8227;BMP180;4154;48.810;9.012;2023-12-04T13:11:18;96292.00;;;1.20
8227;BMP180;4154;48.810;9.012;2023-12-04T13:13:44;96285.00;;;1.20
8227;BMP180;4154;48.810;9.012;2023-12-04T13:16:10;96275.00;;;1.10
8227;BMP180;4154;48.810;9.012;2023-12-04T13:18:37;96282.00;;;1.20
8227;BMP180;4154;48.810;9.012;2023-12-04T13:21:04;96277.00;;;1.10
8227;BMP180;4154;48.810;9.012;2023-12-04T13:23:30;96271.00;;;1.20
8227;BMP180;4154;48.810;9.012;2023-12-04T13:25:56;96268.00;;;1.20
8227;BMP180;4154;48.810;9.012;2023-12-04T13:28:22;96271.00;;;1.20
8227;BMP180;4154;48.810;9.012;2023-12-04T13:30:48;96261.00;;;1.20
8227;BMP180;4154;48.810;9.012;2023-12-04T13:33:15;96255.00;;;1.20
8227;BMP180;4154;48.810;9.012;2023-12-04T13:35:41;96251.00;;;1.20
8227;BMP180;4154;48.810;9.012;2023-12-04T13:38:07;96258.00;;;1.20
8227;BMP180;4154;48.810;9.012;2023-12-04T13:40:39;96248.00;;;1.20
8227;BMP180;4154;48.810;9.012;2023-12-04T13:43:05;96253.00;;;1.20
8227;BMP180;4154;48.810;9.012;2023-12-04T13:45:50;96244.00;;;1.20
8227;BMP180;4154;48.810;9.012;2023-12-04T13:48:17;96247.00;;;1.20
8227;BMP180;4154;48.810;9.012;2023-12-04T13:50:47;96232.00;;;1.20
8227;BMP180;4154;48.810;9.012;2023-12-04T13:53:13;96241.00;;;1.20
8227;BMP180;4154;48.810;9.012;2023-12-04T13:55:40;96222.00;;;1.20
8227;BMP180;4154;48.810;9.012;2023-12-04T13:58:15;96219.00;;;1.30
8227;BMP180;4154;48.810;9.012;2023-12-04T14:01:07;96212.00;;;1.30
8227;BMP180;4154;48.810;9.012;2023-12-04T14:03:48;96206.00;;;1.40
8227;BMP180;4154;48.810;9.012;2023-12-04T14:06:14;96199.00;;;1.40
8227;BMP180;4154;48.810;9.012;2023-12-04T14:08:42;96208.00;;;1.50
8227;BMP180;4154;48.810;9.012;2023-12-04T14:11:08;96200.00;;;1.60
8227;BMP180;4154;48.810;9.012;2023-12-04T14:13:36;96198.00;;;1.60
8227;BMP180;4154;48.810;9.012;2023-12-04T14:16:02;96193.00;;;1.60
8227;BMP180;4154;48.810;9.012;2023-12-04T14:18:28;96193.00;;;1.60
8227;BMP180;4154;48.810;9.012;2023-12-04T14:20:56;96195.00;;;1.60
8227;BMP180;4154;48.810;9.012;2023-12-04T14:23:22;96182.00;;;1.50
8227;BMP180;4154;48.810;9.012;2023-12-04T14:25:48;96191.00;;;1.50
8227;BMP180;4154;48.810;9.012;2023-12-04T14:28:14;96188.00;;;1.50
8227;BMP180;4154;48.810;9.012;2023-12-04T14:30:41;96189.00;;;1.50
8227;BMP180;4154;48.810;9.012;2023-12-04T14:33:07;96185.00;;;1.40
8227;BMP180;4154;48.810;9.012;2023-12-04T14:35:35;96177.00;;;1.40
8227;BMP180;4154;48.810;9.012;2023-12-04T14:38:03;96182.00;;;1.40
8227;BMP180;4154;48.810;9.012;2023-12-04T14:40:30;96178.00;;;1.50
8227;BMP180;4154;48.810;9.012;2023-12-04T14:42:56;96181.00;;;1.50
8227;BMP180;4154;48.810;9.012;2023-12-04T14:45:21;96180.00;;;1.60